Current Conditions
Meist vereinzelt
Bew├Âlkt




Pressure
1021.92 (hPa) - 30.18 (inHG)
Visibility

10.0 (km) - 6.2 (miles)
   Temperature
5  °C
41°F
0  °C
Dewpoint
70  %
 Humidity
   Wind Speed
10  km/h
5  kts
6  mph
2.7  m/s
   Wind Direction
 220°
South West
   Airport Data
EDNY
Location Friedrichshafen Airport 40 km (24.86 mi)
Metar :EDNY 071220Z 22005KT 190V250 9999 SCT044 BKN058 05/00 Q1022
Sun 7th March 13:20 pm
   Raw Metar Info
Raw METAR is the most common format in the world for the transmission of observational weather data. It is highly standardized through the International Civil Aviation Organization (ICAO), which allows it to be understood throughout most of the world.
   API Info
Data Provided by
https://www.checkwx.com/weather/EDNY
   © Info
CSS/SVG/PHP scripts were developed by weather34.com for use in the weather34 template © 2015-2021

Guide Info provided by Metar-Wikipedia